sensor_id;sensor_type;location;lat;lon;timestamp;pressure;altitude;pressure_sealevel;temperature;humidity
20017;BME280;10169;42.664;23.610;2024-03-22T00:00:50;95347.25;;;1.31;100.00
20017;BME280;10169;42.664;23.610;2024-03-22T00:02:50;95341.47;;;1.21;100.00
20017;BME280;10169;42.664;23.610;2024-03-22T00:04:51;95346.56;;;1.23;100.00
20017;BME280;10169;42.664;23.610;2024-03-22T00:06:51;95342.66;;;1.33;100.00
20017;BME280;10169;42.664;23.610;2024-03-22T00:08:51;95341.22;;;1.31;100.00
20017;BME280;10169;42.664;23.610;2024-03-22T00:10:52;95330.94;;;1.29;100.00
20017;BME280;10169;42.664;23.610;2024-03-22T00:12:52;95339.84;;;1.35;100.00
20017;BME280;10169;42.664;23.610;2024-03-22T00:14:52;95344.09;;;1.36;100.00
20017;BME280;10169;42.664;23.610;2024-03-22T00:16:54;95349.88;;;1.31;100.00
20017;BME280;10169;42.664;23.610;2024-03-22T00:18:54;95344.56;;;1.25;100.00
20017;BME280;10169;42.664;23.610;2024-03-22T00:20:55;95337.25;;;1.20;100.00
20017;BME280;10169;42.664;23.610;2024-03-22T00:22:55;95338.41;;;1.18;100.00
20017;BME280;10169;42.664;23.610;2024-03-22T00:24:55;95335.78;;;1.03;100.00
20017;BME280;10169;42.664;23.610;2024-03-22T00:26:56;95333.00;;;1.05;100.00
20017;BME280;10169;42.664;23.610;2024-03-22T00:28:56;95330.56;;;1.03;100.00
20017;BME280;10169;42.664;23.610;2024-03-22T00:30:59;95329.56;;;1.04;100.00
20017;BME280;10169;42.664;23.610;2024-03-22T00:33:00;95334.19;;;1.02;100.00
20017;BME280;10169;42.664;23.610;2024-03-22T00:35:00;95344.84;;;1.01;100.00
20017;BME280;10169;42.664;23.610;2024-03-22T00:37:00;95334.81;;;0.90;100.00
20017;BME280;10169;42.664;23.610;2024-03-22T00:39:00;95337.31;;;0.68;100.00
20017;BME280;10169;42.664;23.610;2024-03-22T00:41:01;95335.66;;;0.67;100.00
20017;BME280;10169;42.664;23.610;2024-03-22T00:43:01;95337.84;;;0.64;100.00
20017;BME280;10169;42.664;23.610;2024-03-22T00:45:01;95337.19;;;0.62;100.00
20017;BME280;10169;42.664;23.610;2024-03-22T00:47:02;95334.94;;;0.59;100.00
20017;BME280;10169;42.664;23.610;2024-03-22T00:49:03;95334.59;;;0.77;100.00
20017;BME280;10169;42.664;23.610;2024-03-22T00:51:03;95337.41;;;0.75;100.00
20017;BME280;10169;42.664;23.610;2024-03-22T00:53:04;95343.19;;;0.85;100.00
20017;BME280;10169;42.664;23.610;2024-03-22T00:55:05;95338.75;;;0.86;100.00
20017;BME280;10169;42.664;23.610;2024-03-22T00:57:05;95334.44;;;0.93;100.00
20017;BME280;10169;42.664;23.610;2024-03-22T00:59:06;95335.44;;;0.92;100.00
20017;BME280;10169;42.664;23.610;2024-03-22T01:01:07;95331.81;;;0.78;100.00
20017;BME280;10169;42.664;23.610;2024-03-22T01:03:07;95342.78;;;0.59;100.00
20017;BME280;10169;42.664;23.610;2024-03-22T01:05:08;95340.78;;;0.46;100.00
20017;BME280;10169;42.664;23.610;2024-03-22T01:07:09;95335.59;;;0.38;100.00
20017;BME280;10169;42.664;23.610;2024-03-22T01:09:09;95335.16;;;0.35;100.00
20017;BME280;10169;42.664;23.610;2024-03-22T01:11:10;95330.97;;;0.26;100.00
20017;BME280;10169;42.664;23.610;2024-03-22T01:13:10;95342.25;;;0.04;100.00
20017;BME280;10169;42.664;23.610;2024-03-22T01:15:10;95334.13;;;-0.02;100.00
20017;BME280;10169;42.664;23.610;2024-03-22T01:17:11;95333.88;;;0.08;100.00
20017;BME280;10169;42.664;23.610;2024-03-22T01:19:11;95337.66;;;0.06;100.00
20017;BME280;10169;42.664;23.610;2024-03-22T01:21:11;95344.78;;;0.12;100.00
20017;BME280;10169;42.664;23.610;2024-03-22T01:23:11;95338.94;;;0.10;100.00
20017;BME280;10169;42.664;23.610;2024-03-22T01:25:12;95339.13;;;0.08;100.00
20017;BME280;10169;42.664;23.610;2024-03-22T01:27:12;95343.53;;;0.08;100.00
20017;BME280;10169;42.664;23.610;2024-03-22T01:29:13;95343.06;;;0.04;100.00
20017;BME280;10169;42.664;23.610;2024-03-22T01:31:14;95341.25;;;0.05;100.00
20017;BME280;10169;42.664;23.610;2024-03-22T01:33:14;95350.09;;;0.04;100.00
20017;BME280;10169;42.664;23.610;2024-03-22T01:35:14;95348.56;;;0.09;100.00
20017;BME280;10169;42.664;23.610;2024-03-22T01:37:15;95343.81;;;0.13;100.00
20017;BME280;10169;42.664;23.610;2024-03-22T01:39:15;95344.22;;;0.02;100.00
20017;BME280;10169;42.664;23.610;2024-03-22T01:41:16;95347.34;;;-0.03;100.00
20017;BME280;10169;42.664;23.610;2024-03-22T01:43:17;95345.72;;;-0.04;100.00
20017;BME280;10169;42.664;23.610;2024-03-22T01:45:18;95349.78;;;-0.02;100.00
20017;BME280;10169;42.664;23.610;2024-03-22T01:47:18;95342.44;;;0.02;100.00
20017;BME280;10169;42.664;23.610;2024-03-22T01:49:18;95345.03;;;0.02;100.00
20017;BME280;10169;42.664;23.610;2024-03-22T01:51:19;95345.84;;;0.03;100.00
20017;BME280;10169;42.664;23.610;2024-03-22T01:53:19;95347.13;;;0.07;100.00
20017;BME280;10169;42.664;23.610;2024-03-22T01:55:20;95360.00;;;0.08;100.00
20017;BME280;10169;42.664;23.610;2024-03-22T01:57:20;95353.66;;;0.03;100.00
20017;BME280;10169;42.664;23.610;2024-03-22T01:59:21;95358.09;;;0.02;100.00
20017;BME280;10169;42.664;23.610;2024-03-22T02:01:22;95353.84;;;0.01;100.00
20017;BME280;10169;42.664;23.610;2024-03-22T02:03:22;95356.69;;;-0.09;100.00
20017;BME280;10169;42.664;23.610;2024-03-22T02:05:22;95352.91;;;-0.06;100.00
20017;BME280;10169;42.664;23.610;2024-03-22T02:07:24;95358.44;;;-0.01;100.00
20017;BME280;10169;42.664;23.610;2024-03-22T02:09:24;95355.00;;;-0.02;100.00
20017;BME280;10169;42.664;23.610;2024-03-22T02:11:25;95349.91;;;0.05;100.00
20017;BME280;10169;42.664;23.610;2024-03-22T02:13:26;95357.22;;;0.10;100.00
20017;BME280;10169;42.664;23.610;2024-03-22T02:15:26;95356.88;;;0.13;100.00
20017;BME280;10169;42.664;23.610;2024-03-22T02:17:26;95356.03;;;0.20;100.00
20017;BME280;10169;42.664;23.610;2024-03-22T02:19:27;95357.00;;;0.19;100.00
20017;BME280;10169;42.664;23.610;2024-03-22T02:21:27;95352.47;;;0.13;100.00
20017;BME280;10169;42.664;23.610;2024-03-22T02:23:34;95353.00;;;0.09;100.00
20017;BME280;10169;42.664;23.610;2024-03-22T02:25:34;95361.00;;;0.07;100.00
20017;BME280;10169;42.664;23.610;2024-03-22T02:27:35;95354.78;;;0.08;100.00
20017;BME280;10169;42.664;23.610;2024-03-22T02:29:35;95356.13;;;0.04;100.00
20017;BME280;10169;42.664;23.610;2024-03-22T02:31:35;95361.69;;;0.01;100.00
20017;BME280;10169;42.664;23.610;2024-03-22T02:33:35;95362.22;;;-0.04;100.00
20017;BME280;10169;42.664;23.610;2024-03-22T02:35:36;95365.66;;;-0.03;100.00
20017;BME280;10169;42.664;23.610;2024-03-22T02:37:36;95366.97;;;-0.07;100.00
20017;BME280;10169;42.664;23.610;2024-03-22T02:39:36;95367.63;;;-0.05;100.00
20017;BME280;10169;42.664;23.610;2024-03-22T02:41:36;95375.09;;;-0.02;100.00
20017;BME280;10169;42.664;23.610;2024-03-22T02:43:37;95368.72;;;0.00;100.00
20017;BME280;10169;42.664;23.610;2024-03-22T02:45:37;95378.53;;;-0.02;100.00
20017;BME280;10169;42.664;23.610;2024-03-22T02:47:38;95382.41;;;0.03;100.00
20017;BME280;10169;42.664;23.610;2024-03-22T02:49:38;95384.22;;;0.02;100.00
20017;BME280;10169;42.664;23.610;2024-03-22T02:51:39;95388.41;;;-0.12;100.00
20017;BME280;10169;42.664;23.610;2024-03-22T02:53:39;95395.88;;;-0.09;100.00
20017;BME280;10169;42.664;23.610;2024-03-22T02:55:39;95394.78;;;-0.14;100.00
20017;BME280;10169;42.664;23.610;2024-03-22T02:57:40;95394.16;;;-0.24;100.00
20017;BME280;10169;42.664;23.610;2024-03-22T02:59:40;95396.50;;;-0.29;100.00
20017;BME280;10169;42.664;23.610;2024-03-22T03:01:40;95394.22;;;-0.32;100.00
20017;BME280;10169;42.664;23.610;2024-03-22T03:03:41;95394.66;;;-0.29;100.00
20017;BME280;10169;42.664;23.610;2024-03-22T03:05:41;95392.88;;;-0.28;100.00
20017;BME280;10169;42.664;23.610;2024-03-22T03:07:42;95393.50;;;-0.26;100.00
20017;BME280;10169;42.664;23.610;2024-03-22T03:09:42;95394.66;;;-0.29;100.00
20017;BME280;10169;42.664;23.610;2024-03-22T03:11:42;95400.53;;;-0.27;100.00
20017;BME280;10169;42.664;23.610;2024-03-22T03:13:42;95399.38;;;-0.24;100.00
20017;BME280;10169;42.664;23.610;2024-03-22T03:15:43;95404.97;;;-0.27;100.00
20017;BME280;10169;42.664;23.610;2024-03-22T03:17:43;95406.41;;;-0.25;100.00
20017;BME280;10169;42.664;23.610;2024-03-22T03:19:44;95405.75;;;-0.27;100.00
20017;BME280;10169;42.664;23.610;2024-03-22T03:21:44;95412.78;;;-0.27;100.00
20017;BME280;10169;42.664;23.610;2024-03-22T03:23:44;95411.16;;;-0.28;100.00
20017;BME280;10169;42.664;23.610;2024-03-22T03:25:45;95412.81;;;-0.35;100.00
20017;BME280;10169;42.664;23.610;2024-03-22T03:27:45;95405.88;;;-0.51;100.00
20017;BME280;10169;42.664;23.610;2024-03-22T03:29:46;95405.94;;;-0.75;100.00
20017;BME280;10169;42.664;23.610;2024-03-22T03:31:46;95406.00;;;-0.83;100.00
20017;BME280;10169;42.664;23.610;2024-03-22T03:33:46;95410.03;;;-0.73;100.00
20017;BME280;10169;42.664;23.610;2024-03-22T03:35:47;95415.25;;;-0.73;100.00
20017;BME280;10169;42.664;23.610;2024-03-22T03:37:47;95414.69;;;-0.60;100.00
20017;BME280;10169;42.664;23.610;2024-03-22T03:39:47;95418.97;;;-0.59;100.00
20017;BME280;10169;42.664;23.610;2024-03-22T03:41:48;95421.38;;;-0.57;100.00
20017;BME280;10169;42.664;23.610;2024-03-22T03:43:48;95416.34;;;-0.67;100.00
20017;BME280;10169;42.664;23.610;2024-03-22T03:45:48;95419.00;;;-0.75;100.00
20017;BME280;10169;42.664;23.610;2024-03-22T03:47:48;95416.72;;;-0.70;100.00
20017;BME280;10169;42.664;23.610;2024-03-22T03:49:49;95424.84;;;-0.73;100.00
20017;BME280;10169;42.664;23.610;2024-03-22T03:51:49;95435.63;;;-0.68;100.00
20017;BME280;10169;42.664;23.610;2024-03-22T03:53:49;95429.28;;;-0.82;100.00
20017;BME280;10169;42.664;23.610;2024-03-22T03:55:49;95429.47;;;-0.91;100.00
20017;BME280;10169;42.664;23.610;2024-03-22T03:57:50;95427.00;;;-0.85;100.00
20017;BME280;10169;42.664;23.610;2024-03-22T03:59:51;95432.72;;;-0.89;100.00
20017;BME280;10169;42.664;23.610;2024-03-22T04:01:51;95426.56;;;-1.04;100.00
20017;BME280;10169;42.664;23.610;2024-03-22T04:03:51;95428.19;;;-0.95;100.00
20017;BME280;10169;42.664;23.610;2024-03-22T04:05:58;95428.50;;;-0.90;100.00
20017;BME280;10169;42.664;23.610;2024-03-22T04:07:58;95435.31;;;-0.81;100.00
20017;BME280;10169;42.664;23.610;2024-03-22T04:09:58;95439.19;;;-0.69;100.00
20017;BME280;10169;42.664;23.610;2024-03-22T04:12:00;95443.44;;;-0.68;100.00
20017;BME280;10169;42.664;23.610;2024-03-22T04:14:00;95449.00;;;-0.63;100.00
20017;BME280;10169;42.664;23.610;2024-03-22T04:16:00;95449.78;;;-0.62;100.00
20017;BME280;10169;42.664;23.610;2024-03-22T04:18:01;95450.28;;;-0.59;100.00
20017;BME280;10169;42.664;23.610;2024-03-22T04:20:01;95453.25;;;-0.70;100.00
20017;BME280;10169;42.664;23.610;2024-03-22T04:22:03;95451.28;;;-0.68;100.00
20017;BME280;10169;42.664;23.610;2024-03-22T04:24:03;95456.63;;;-0.69;100.00
20017;BME280;10169;42.664;23.610;2024-03-22T04:26:04;95439.56;;;-0.88;100.00
20017;BME280;10169;42.664;23.610;2024-03-22T04:28:04;95458.13;;;-0.75;100.00
20017;BME280;10169;42.664;23.610;2024-03-22T04:30:04;95465.78;;;-0.74;100.00
20017;BME280;10169;42.664;23.610;2024-03-22T04:32:05;95458.28;;;-0.68;100.00
20017;BME280;10169;42.664;23.610;2024-03-22T04:34:05;95454.22;;;-0.63;100.00
20017;BME280;10169;42.664;23.610;2024-03-22T04:36:07;95454.84;;;-0.69;100.00
20017;BME280;10169;42.664;23.610;2024-03-22T04:38:09;95463.47;;;-0.60;100.00
20017;BME280;10169;42.664;23.610;2024-03-22T04:40:10;95435.28;;;-0.73;100.00
20017;BME280;10169;42.664;23.610;2024-03-22T04:42:10;95463.59;;;-0.46;100.00
20017;BME280;10169;42.664;23.610;2024-03-22T04:44:10;95464.72;;;-0.40;100.00
20017;BME280;10169;42.664;23.610;2024-03-22T04:46:11;95469.75;;;-0.31;100.00
20017;BME280;10169;42.664;23.610;2024-03-22T04:48:12;95471.84;;;-0.26;100.00
20017;BME280;10169;42.664;23.610;2024-03-22T04:50:12;95477.84;;;-0.18;100.00
20017;BME280;10169;42.664;23.610;2024-03-22T04:52:14;95464.66;;;-0.16;100.00
20017;BME280;10169;42.664;23.610;2024-03-22T04:54:15;95470.50;;;-0.14;100.00
20017;BME280;10169;42.664;23.610;2024-03-22T04:56:15;95472.94;;;-0.05;100.00
20017;BME280;10169;42.664;23.610;2024-03-22T04:58:16;95471.75;;;-0.02;100.00
20017;BME280;10169;42.664;23.610;2024-03-22T05:00:17;95480.03;;;0.10;100.00
20017;BME280;10169;42.664;23.610;2024-03-22T05:02:17;95470.06;;;0.13;100.00
20017;BME280;10169;42.664;23.610;2024-03-22T05:04:17;95478.84;;;0.20;100.00
20017;BME280;10169;42.664;23.610;2024-03-22T05:06:18;95468.22;;;0.14;100.00
20017;BME280;10169;42.664;23.610;2024-03-22T05:08:18;95477.31;;;0.26;100.00
20017;BME280;10169;42.664;23.610;2024-03-22T05:10:19;95482.38;;;0.27;100.00
20017;BME280;10169;42.664;23.610;2024-03-22T05:12:19;95478.28;;;0.33;100.00
20017;BME280;10169;42.664;23.610;2024-03-22T05:14:19;95482.16;;;0.37;100.00
20017;BME280;10169;42.664;23.610;2024-03-22T05:16:19;95488.00;;;0.47;100.00
20017;BME280;10169;42.664;23.610;2024-03-22T05:18:20;95489.91;;;0.53;100.00
20017;BME280;10169;42.664;23.610;2024-03-22T05:20:20;95492.81;;;0.58;100.00
20017;BME280;10169;42.664;23.610;2024-03-22T05:22:20;95492.47;;;0.61;100.00
20017;BME280;10169;42.664;23.610;2024-03-22T05:24:22;95491.53;;;0.77;100.00
20017;BME280;10169;42.664;23.610;2024-03-22T05:26:22;95493.81;;;0.80;100.00
20017;BME280;10169;42.664;23.610;2024-03-22T05:28:22;95485.63;;;0.83;100.00
20017;BME280;10169;42.664;23.610;2024-03-22T05:30:23;95498.69;;;1.05;100.00
20017;BME280;10169;42.664;23.610;2024-03-22T05:32:23;95491.06;;;1.33;100.00
20017;BME280;10169;42.664;23.610;2024-03-22T05:34:24;95494.41;;;1.41;100.00
20017;BME280;10169;42.664;23.610;2024-03-22T05:36:24;95494.88;;;1.60;100.00
20017;BME280;10169;42.664;23.610;2024-03-22T05:38:24;95503.66;;;1.67;100.00
20017;BME280;10169;42.664;23.610;2024-03-22T05:40:25;95499.31;;;1.74;100.00
20017;BME280;10169;42.664;23.610;2024-03-22T05:42:25;95496.53;;;1.90;100.00
20017;BME280;10169;42.664;23.610;2024-03-22T05:44:26;95500.84;;;1.97;100.00
20017;BME280;10169;42.664;23.610;2024-03-22T05:46:26;95503.28;;;2.13;100.00
20017;BME280;10169;42.664;23.610;2024-03-22T05:48:26;95498.19;;;2.27;100.00
20017;BME280;10169;42.664;23.610;2024-03-22T05:50:26;95498.53;;;2.38;100.00
20017;BME280;10169;42.664;23.610;2024-03-22T05:52:27;95497.69;;;2.52;100.00
20017;BME280;10169;42.664;23.610;2024-03-22T05:54:27;95498.47;;;2.67;100.00
20017;BME280;10169;42.664;23.610;2024-03-22T05:56:27;95500.47;;;2.65;100.00
20017;BME280;10169;42.664;23.610;2024-03-22T05:58:28;95502.59;;;2.55;100.00
20017;BME280;10169;42.664;23.610;2024-03-22T06:00:28;95502.44;;;2.78;100.00
20017;BME280;10169;42.664;23.610;2024-03-22T06:02:28;95507.28;;;2.81;100.00
20017;BME280;10169;42.664;23.610;2024-03-22T06:04:29;95515.28;;;2.94;100.00
20017;BME280;10169;42.664;23.610;2024-03-22T06:06:29;95511.72;;;3.02;100.00
20017;BME280;10169;42.664;23.610;2024-03-22T06:08:29;95517.25;;;3.34;100.00
20017;BME280;10169;42.664;23.610;2024-03-22T06:10:31;95521.44;;;3.50;100.00
20017;BME280;10169;42.664;23.610;2024-03-22T06:12:32;95522.13;;;3.58;100.00
20017;BME280;10169;42.664;23.610;2024-03-22T06:14:32;95517.84;;;3.57;100.00
20017;BME280;10169;42.664;23.610;2024-03-22T06:16:32;95520.22;;;3.74;100.00
20017;BME280;10169;42.664;23.610;2024-03-22T06:18:32;95518.56;;;4.00;100.00
20017;BME280;10169;42.664;23.610;2024-03-22T06:20:33;95527.75;;;4.17;100.00
20017;BME280;10169;42.664;23.610;2024-03-22T06:22:33;95514.72;;;4.44;100.00
20017;BME280;10169;42.664;23.610;2024-03-22T06:24:33;95511.72;;;4.60;100.00
20017;BME280;10169;42.664;23.610;2024-03-22T06:26:34;95519.50;;;4.81;100.00
20017;BME280;10169;42.664;23.610;2024-03-22T06:28:34;95516.06;;;4.80;100.00
20017;BME280;10169;42.664;23.610;2024-03-22T06:30:34;95520.94;;;4.90;100.00
20017;BME280;10169;42.664;23.610;2024-03-22T06:32:34;95523.41;;;5.04;100.00
20017;BME280;10169;42.664;23.610;2024-03-22T06:34:35;95517.56;;;5.22;100.00
20017;BME280;10169;42.664;23.610;2024-03-22T06:36:35;95525.06;;;5.45;100.00
20017;BME280;10169;42.664;23.610;2024-03-22T06:38:36;95524.88;;;5.59;100.00
20017;BME280;10169;42.664;23.610;2024-03-22T06:40:36;95526.31;;;5.68;100.00
20017;BME280;10169;42.664;23.610;2024-03-22T06:42:36;95522.03;;;5.67;100.00
20017;BME280;10169;42.664;23.610;2024-03-22T06:44:36;95527.72;;;5.97;100.00
20017;BME280;10169;42.664;23.610;2024-03-22T06:46:37;95524.97;;;6.43;100.00
20017;BME280;10169;42.664;23.610;2024-03-22T06:48:37;95531.38;;;6.67;100.00
20017;BME280;10169;42.664;23.610;2024-03-22T06:50:38;95527.19;;;6.97;100.00
20017;BME280;10169;42.664;23.610;2024-03-22T06:52:38;95530.22;;;7.00;100.00
20017;BME280;10169;42.664;23.610;2024-03-22T06:54:38;95529.56;;;7.05;100.00
20017;BME280;10169;42.664;23.610;2024-03-22T06:56:39;95532.63;;;7.02;100.00
20017;BME280;10169;42.664;23.610;2024-03-22T06:58:39;95532.88;;;7.31;100.00
20017;BME280;10169;42.664;23.610;2024-03-22T07:00:39;95530.25;;;7.56;100.00
20017;BME280;10169;42.664;23.610;2024-03-22T07:02:40;95541.78;;;7.37;99.81
20017;BME280;10169;42.664;23.610;2024-03-22T07:04:40;95529.94;;;7.46;100.00
20017;BME280;10169;42.664;23.610;2024-03-22T07:06:41;95536.59;;;7.80;100.00
20017;BME280;10169;42.664;23.610;2024-03-22T07:08:42;95535.13;;;7.84;99.16
20017;BME280;10169;42.664;23.610;2024-03-22T07:10:42;95547.22;;;8.16;97.15
20017;BME280;10169;42.664;23.610;2024-03-22T07:12:42;95536.38;;;8.24;95.00
20017;BME280;10169;42.664;23.610;2024-03-22T07:14:43;95544.16;;;8.62;90.97
20017;BME280;10169;42.664;23.610;2024-03-22T07:16:43;95545.25;;;8.54;87.11
20017;BME280;10169;42.664;23.610;2024-03-22T07:18:43;95538.94;;;8.55;85.84
20017;BME280;10169;42.664;23.610;2024-03-22T07:20:45;95535.22;;;8.74;76.98
20017;BME280;10169;42.664;23.610;2024-03-22T07:22:45;95535.22;;;8.56;73.58
20017;BME280;10169;42.664;23.610;2024-03-22T07:24:46;95538.09;;;8.91;72.35
20017;BME280;10169;42.664;23.610;2024-03-22T07:26:47;95535.00;;;8.94;70.86
20017;BME280;10169;42.664;23.610;2024-03-22T07:28:47;95544.50;;;8.84;67.83
20017;BME280;10169;42.664;23.610;2024-03-22T07:30:47;95543.25;;;8.86;68.37
20017;BME280;10169;42.664;23.610;2024-03-22T07:32:48;95539.84;;;8.97;72.46
20017;BME280;10169;42.664;23.610;2024-03-22T07:34:48;95536.84;;;8.94;67.53
20017;BME280;10169;42.664;23.610;2024-03-22T07:36:50;95537.75;;;8.88;65.77
20017;BME280;10169;42.664;23.610;2024-03-22T07:38:51;95531.50;;;9.12;66.07
20017;BME280;10169;42.664;23.610;2024-03-22T07:40:51;95537.38;;;9.43;66.08
20017;BME280;10169;42.664;23.610;2024-03-22T07:42:51;95535.47;;;9.74;65.94
20017;BME280;10169;42.664;23.610;2024-03-22T07:44:51;95535.84;;;10.00;64.03
20017;BME280;10169;42.664;23.610;2024-03-22T07:46:52;95534.47;;;10.09;62.69
20017;BME280;10169;42.664;23.610;2024-03-22T07:48:52;95529.53;;;10.25;61.83
20017;BME280;10169;42.664;23.610;2024-03-22T07:50:56;95537.63;;;10.30;60.27
20017;BME280;10169;42.664;23.610;2024-03-22T07:52:57;95527.09;;;10.58;59.84
20017;BME280;10169;42.664;23.610;2024-03-22T07:54:57;95535.00;;;10.81;57.56
20017;BME280;10169;42.664;23.610;2024-03-22T07:56:58;95532.16;;;10.71;57.86
20017;BME280;10169;42.664;23.610;2024-03-22T07:58:58;95534.13;;;10.75;57.22
20017;BME280;10169;42.664;23.610;2024-03-22T08:00:58;95522.94;;;10.62;57.67
20017;BME280;10169;42.664;23.610;2024-03-22T08:02:59;95532.47;;;10.86;57.92
20017;BME280;10169;42.664;23.610;2024-03-22T08:04:59;95530.84;;;11.25;56.60
20017;BME280;10169;42.664;23.610;2024-03-22T08:06:59;95533.78;;;11.40;55.78
20017;BME280;10169;42.664;23.610;2024-03-22T08:08:59;95532.97;;;11.39;55.84
20017;BME280;10169;42.664;23.610;2024-03-22T08:11:00;95537.31;;;11.74;55.26
20017;BME280;10169;42.664;23.610;2024-03-22T08:13:00;95530.66;;;11.59;54.96
20017;BME280;10169;42.664;23.610;2024-03-22T08:15:00;95527.56;;;11.79;56.01
20017;BME280;10169;42.664;23.610;2024-03-22T08:17:01;95533.97;;;11.95;55.18
20017;BME280;10169;42.664;23.610;2024-03-22T08:19:01;95531.53;;;11.93;54.64
20017;BME280;10169;42.664;23.610;2024-03-22T08:21:01;95530.22;;;12.29;53.16
20017;BME280;10169;42.664;23.610;2024-03-22T08:23:02;95526.69;;;12.23;53.66
20017;BME280;10169;42.664;23.610;2024-03-22T08:25:03;95526.09;;;12.38;52.88
20017;BME280;10169;42.664;23.610;2024-03-22T08:27:04;95529.13;;;12.47;52.32
20017;BME280;10169;42.664;23.610;2024-03-22T08:29:04;95518.28;;;12.53;51.65
20017;BME280;10169;42.664;23.610;2024-03-22T08:31:05;95522.38;;;12.39;51.32
20017;BME280;10169;42.664;23.610;2024-03-22T08:33:05;95522.91;;;13.01;52.17
20017;BME280;10169;42.664;23.610;2024-03-22T08:35:06;95520.56;;;13.26;51.24
20017;BME280;10169;42.664;23.610;2024-03-22T08:37:06;95522.22;;;13.54;49.62
20017;BME280;10169;42.664;23.610;2024-03-22T08:39:07;95518.47;;;13.55;48.45
20017;BME280;10169;42.664;23.610;2024-03-22T08:41:10;95521.00;;;13.40;48.58
20017;BME280;10169;42.664;23.610;2024-03-22T08:43:11;95523.56;;;13.88;50.25
20017;BME280;10169;42.664;23.610;2024-03-22T08:45:11;95520.84;;;13.83;48.21
20017;BME280;10169;42.664;23.610;2024-03-22T08:47:11;95525.25;;;13.94;49.00
20017;BME280;10169;42.664;23.610;2024-03-22T08:49:12;95526.13;;;14.05;48.21
20017;BME280;10169;42.664;23.610;2024-03-22T08:51:12;95532.41;;;14.20;47.35
20017;BME280;10169;42.664;23.610;2024-03-22T08:53:12;95520.22;;;13.71;46.86
20017;BME280;10169;42.664;23.610;2024-03-22T08:55:12;95524.13;;;13.58;46.77
20017;BME280;10169;42.664;23.610;2024-03-22T08:57:13;95524.09;;;13.32;47.79
20017;BME280;10169;42.664;23.610;2024-03-22T08:59:13;95523.19;;;13.74;49.62
20017;BME280;10169;42.664;23.610;2024-03-22T09:01:13;95525.16;;;14.16;47.82
20017;BME280;10169;42.664;23.610;2024-03-22T09:03:14;95526.47;;;14.45;47.43
20017;BME280;10169;42.664;23.610;2024-03-22T09:05:14;95524.13;;;14.59;47.01
20017;BME280;10169;42.664;23.610;2024-03-22T09:07:15;95522.22;;;15.11;46.31
20017;BME280;10169;42.664;23.610;2024-03-22T09:09:15;95518.94;;;15.51;45.04
20017;BME280;10169;42.664;23.610;2024-03-22T09:11:16;95512.94;;;15.34;43.98
20017;BME280;10169;42.664;23.610;2024-03-22T09:13:18;95514.25;;;15.21;45.00
20017;BME280;10169;42.664;23.610;2024-03-22T09:15:18;95513.97;;;15.22;44.83
20017;BME280;10169;42.664;23.610;2024-03-22T09:17:19;95504.06;;;15.13;44.01
20017;BME280;10169;42.664;23.610;2024-03-22T09:19:19;95513.59;;;14.94;45.20
20017;BME280;10169;42.664;23.610;2024-03-22T09:21:19;95507.41;;;15.60;45.04
20017;BME280;10169;42.664;23.610;2024-03-22T09:23:20;95509.06;;;16.02;43.79
20017;BME280;10169;42.664;23.610;2024-03-22T09:25:20;95502.88;;;16.56;43.52
20017;BME280;10169;42.664;23.610;2024-03-22T09:27:21;95507.41;;;16.66;42.09
20017;BME280;10169;42.664;23.610;2024-03-22T09:29:21;95499.13;;;16.32;42.13
20017;BME280;10169;42.664;23.610;2024-03-22T09:31:22;95495.13;;;15.94;43.37
20017;BME280;10169;42.664;23.610;2024-03-22T09:33:22;95489.41;;;15.41;45.47
20017;BME280;10169;42.664;23.610;2024-03-22T09:35:22;95492.88;;;15.41;45.07
20017;BME280;10169;42.664;23.610;2024-03-22T09:37:22;95508.00;;;16.03;45.12
20017;BME280;10169;42.664;23.610;2024-03-22T09:39:23;95506.81;;;16.79;43.16
20017;BME280;10169;42.664;23.610;2024-03-22T09:41:24;95506.06;;;16.48;41.59
20017;BME280;10169;42.664;23.610;2024-03-22T09:43:25;95494.06;;;15.75;42.12
20017;BME280;10169;42.664;23.610;2024-03-22T09:45:27;95493.41;;;15.33;43.87
20017;BME280;10169;42.664;23.610;2024-03-22T09:47:27;95499.00;;;15.32;43.83
20017;BME280;10169;42.664;23.610;2024-03-22T09:49:27;95498.84;;;16.19;44.74
20017;BME280;10169;42.664;23.610;2024-03-22T09:51:28;95495.25;;;16.99;41.82
20017;BME280;10169;42.664;23.610;2024-03-22T09:53:28;95494.75;;;17.46;41.53
20017;BME280;10169;42.664;23.610;2024-03-22T09:55:30;95477.59;;;16.78;40.64
20017;BME280;10169;42.664;23.610;2024-03-22T09:57:31;95484.94;;;16.32;40.96
20017;BME280;10169;42.664;23.610;2024-03-22T09:59:31;95480.78;;;16.85;40.96
20017;BME280;10169;42.664;23.610;2024-03-22T10:01:33;95483.31;;;15.80;41.56
20017;BME280;10169;42.664;23.610;2024-03-22T10:03:34;95478.88;;;15.04;41.73
20017;BME280;10169;42.664;23.610;2024-03-22T10:05:34;95468.91;;;14.37;43.21
20017;BME280;10169;42.664;23.610;2024-03-22T10:07:35;95479.66;;;14.99;44.28
20017;BME280;10169;42.664;23.610;2024-03-22T10:09:35;95475.28;;;15.70;44.09
20017;BME280;10169;42.664;23.610;2024-03-22T10:11:36;95469.69;;;15.87;42.09
20017;BME280;10169;42.664;23.610;2024-03-22T10:13:36;95464.75;;;15.29;43.20
20017;BME280;10169;42.664;23.610;2024-03-22T10:15:36;95468.03;;;15.61;42.05
20017;BME280;10169;42.664;23.610;2024-03-22T10:17:37;95475.56;;;15.89;42.32
20017;BME280;10169;42.664;23.610;2024-03-22T10:19:37;95467.38;;;15.18;42.67
20017;BME280;10169;42.664;23.610;2024-03-22T10:21:40;95461.06;;;14.68;42.86
20017;BME280;10169;42.664;23.610;2024-03-22T10:23:40;95462.16;;;15.79;42.06
20017;BME280;10169;42.664;23.610;2024-03-22T10:25:41;95461.56;;;16.47;40.64
20017;BME280;10169;42.664;23.610;2024-03-22T10:27:41;95461.69;;;16.91;40.39